Time;durP1;ratioP1;P1;durP2;ratioP2;P2;SDS_P1;SDS_P2;PMS_P1;PMS_P2;Temp;Humidity;BMP_temperature;BMP_pressure;BME280_temperature;BME280_humidity;BME280_pressure;Samples;Min_cycle;Max_cycle;Signal;HPM_P1;HPM_P2
2022/06/24 00:00:38;;;;;;;15.18;7.13;;;;;;;21.90;77.53;100548.44;4993583;28;20026;-57
2022/06/24 00:03:04;;;;;;;11.68;6.80;;;;;;;21.74;78.69;100552.31;4991113;28;20389;-57
2022/06/24 00:05:30;;;;;;;10.32;6.57;;;;;;;21.67;79.37;100573.88;4982664;28;20048;-57
2022/06/24 00:07:56;;;;;;;16.85;6.65;;;;;;;21.55;79.83;100614.13;4993851;28;20026;-57
2022/06/24 00:10:24;;;;;;;13.93;7.70;;;;;;;21.50;81.49;100643.59;4980702;28;20026;-57
2022/06/24 00:12:51;;;;;;;12.00;7.77;;;;;;;21.55;80.72;100657.38;4993306;28;20061;-58
2022/06/24 00:15:31;;;;;;;19.95;9.73;;;;;;;21.54;79.39;100649.44;4989477;28;20791;-58
2022/06/24 00:17:58;;;;;;;25.65;13.60;;;;;;;21.46;82.76;100630.63;4988397;28;20109;-58
2022/06/24 00:20:24;;;;;;;26.80;14.52;;;;;;;21.32;84.86;100635.94;4987808;28;20030;-58
2022/06/24 00:22:51;;;;;;;20.98;16.23;;;;;;;21.33;85.81;100652.97;4990897;28;20089;-58
2022/06/24 00:25:22;;;;;;;20.90;16.27;;;;;;;21.26;85.71;100672.63;4985135;28;20506;-58
2022/06/24 00:28:08;;;;;;;19.27;16.80;;;;;;;21.29;82.43;100701.13;4993570;28;20482;-57
2022/06/24 00:30:44;;;;;;;21.33;16.05;;;;;;;21.20;84.71;100704.97;4992689;28;20088;-58
2022/06/24 00:33:15;;;;;;;22.13;15.15;;;;;;;21.18;85.21;100694.38;4993882;28;20061;-58
2022/06/24 00:35:45;;;;;;;24.40;15.10;;;;;;;21.10;86.13;100702.59;4993450;28;20026;-56
2022/06/24 00:38:31;;;;;;;13.68;10.80;;;;;;;21.04;82.71;100711.47;4980382;28;20023;-57
2022/06/24 00:41:03;;;;;;;15.38;9.48;;;;;;;20.93;83.76;100725.44;4985270;28;20051;-59
2022/06/24 00:43:34;;;;;;;11.35;7.07;;;;;;;20.91;81.68;100743.69;4993374;28;20085;-58
2022/06/24 00:46:14;;;;;;;13.88;8.25;;;;;;;20.80;84.35;100728.78;4981417;28;20033;-58
2022/06/24 00:48:45;;;;;;;11.70;6.97;;;;;;;20.66;82.12;100714.31;4988807;28;20043;-57
2022/06/24 00:51:11;;;;;;;10.82;7.18;;;;;;;20.65;83.67;100709.91;4983364;28;20141;-58
2022/06/24 00:53:44;;;;;;;13.63;6.07;;;;;;;20.61;84.90;100703.19;4971458;28;20027;-56
2022/06/24 00:56:11;;;;;;;7.80;5.03;;;;;;;20.51;83.89;100723.19;4992827;28;20037;-57
2022/06/24 00:58:37;;;;;;;8.65;4.60;;;;;;;20.47;84.50;100723.78;4979486;28;20030;-57
2022/06/24 01:01:02;;;;;;;11.75;4.32;;;;;;;20.38;83.26;100706.81;4990823;28;20026;-57
2022/06/24 01:03:41;;;;;;;5.38;3.45;;;;;;;20.40;81.12;100694.00;5039868;23;20069;-82
2022/06/24 01:06:07;;;;;;;5.53;3.00;;;;;;;20.17;81.38;100690.53;5004875;28;20026;-81
2022/06/24 01:08:33;;;;;;;4.88;2.40;;;;;;;20.12;80.55;100681.16;5010982;28;20026;-81
2022/06/24 01:10:59;;;;;;;3.63;2.25;;;;;;;19.97;82.33;100672.22;5010868;28;20033;-81
2022/06/24 01:13:24;;;;;;;4.57;1.88;;;;;;;19.95;81.20;100663.44;5012915;28;20113;-81
2022/06/24 01:15:50;;;;;;;4.97;2.00;;;;;;;19.89;81.55;100650.72;4995317;28;20021;-80
2022/06/24 01:18:16;;;;;;;3.85;2.10;;;;;;;19.88;80.94;100647.16;5012914;28;20030;-80
2022/06/24 01:20:41;;;;;;;3.95;1.92;;;;;;;19.78;82.43;100643.91;5012670;28;20076;-80
2022/06/24 01:23:06;;;;;;;4.32;1.80;;;;;;;19.67;81.83;100644.31;4995307;28;20045;-81
2022/06/24 01:25:32;;;;;;;3.90;1.70;;;;;;;19.60;81.23;100636.97;4983342;28;20091;-81
2022/06/24 01:27:57;;;;;;;3.28;1.90;;;;;;;19.55;80.29;100636.69;5013367;28;20486;-80
2022/06/24 01:30:23;;;;;;;2.55;1.58;;;;;;;19.47;81.49;100643.97;5012142;28;20590;-80
2022/06/24 01:32:48;;;;;;;2.13;1.40;;;;;;;19.46;81.17;100639.63;4997510;28;20053;-80
2022/06/24 01:35:14;;;;;;;2.67;1.50;;;;;;;19.44;83.38;100629.03;5004429;28;20030;-80
2022/06/24 01:37:39;;;;;;;2.03;1.30;;;;;;;19.44;81.77;100638.97;5011629;28;20031;-81
2022/06/24 01:40:05;;;;;;;3.85;1.60;;;;;;;19.40;80.57;100635.78;4997438;28;20038;-81
2022/06/24 01:42:31;;;;;;;3.15;1.23;;;;;;;19.30;81.55;100636.03;4997751;28;20405;-80
2022/06/24 01:44:59;;;;;;;4.35;1.30;;;;;;;19.30;81.39;100638.75;5013277;28;20105;-80
2022/06/24 01:47:25;;;;;;;4.10;1.45;;;;;;;19.34;82.30;100625.75;5009702;28;20034;-80
2022/06/24 01:49:50;;;;;;;2.78;1.27;;;;;;;19.29;81.67;100612.00;5008211;28;20025;-81
2022/06/24 01:52:16;;;;;;;4.50;1.60;;;;;;;19.19;81.46;100604.16;4993464;28;20037;-80
2022/06/24 01:54:41;;;;;;;2.47;1.50;;;;;;;19.21;80.66;100611.00;4999120;28;20023;-80
2022/06/24 01:57:07;;;;;;;3.47;1.60;;;;;;;19.18;81.38;100611.38;5006058;28;20026;-81
2022/06/24 01:59:32;;;;;;;2.22;1.25;;;;;;;19.08;81.76;100608.09;4995416;28;20061;-81
2022/06/24 02:01:58;;;;;;;3.25;1.33;;;;;;;19.11;81.71;100607.72;5011964;28;20076;-81
2022/06/24 02:04:23;;;;;;;3.20;1.40;;;;;;;19.01;81.25;100590.97;4985696;28;20047;-80
2022/06/24 02:06:49;;;;;;;1.50;1.13;;;;;;;19.02;81.65;100588.13;4990507;28;20459;-81
2022/06/24 02:09:16;;;;;;;2.83;1.33;;;;;;;19.01;82.66;100586.44;4990244;28;20034;-81
2022/06/24 02:14:27;;;;;;;4.15;1.38;;;;;;;18.99;83.16;100593.84;4982400;28;20576;-80
2022/06/24 02:16:52;;;;;;;4.45;1.48;;;;;;;18.96;82.82;100599.59;4993454;28;20065;-80
2022/06/24 02:19:19;;;;;;;5.07;1.58;;;;;;;18.93;81.89;100609.88;4993453;28;20085;-80
2022/06/24 02:21:44;;;;;;;2.45;1.67;;;;;;;18.94;84.37;100601.63;4992780;28;20397;-80
2022/06/24 02:24:13;;;;;;;3.63;1.80;;;;;;;18.96;82.24;100604.13;4993085;28;20102;-80
2022/06/24 02:26:38;;;;;;;1.63;1.52;;;;;;;18.93;82.17;100601.81;4993466;28;20027;-81
2022/06/24 02:29:03;;;;;;;1.75;1.60;;;;;;;18.88;84.33;100599.63;4992947;28;20029;-81
2022/06/24 02:31:29;;;;;;;1.70;1.50;;;;;;;18.84;83.57;100584.88;4993975;28;20534;-81
2022/06/24 02:33:54;;;;;;;8.98;2.00;;;;;;;18.85;82.88;100576.63;4994007;28;20110;-81
2022/06/24 02:36:19;;;;;;;3.05;1.92;;;;;;;18.93;83.18;100574.88;4990573;28;20149;-81
2022/06/24 02:38:45;;;;;;;3.60;2.00;;;;;;;18.84;85.48;100572.25;4987430;28;20022;-81
2022/06/24 02:41:11;;;;;;;5.35;2.33;;;;;;;18.88;82.67;100561.97;5000064;28;20482;-81
2022/06/24 02:43:39;;;;;;;2.75;2.08;;;;;;;18.84;84.12;100563.34;5011885;28;20138;-81
2022/06/24 02:46:12;;;;;;;2.45;1.90;;;;;;;18.84;83.50;100553.41;4993910;28;20026;-81
2022/06/24 02:48:40;;;;;;;1.92;1.77;;;;;;;18.86;83.94;100569.38;4996620;28;20042;-81
2022/06/24 02:51:08;;;;;;;1.85;1.65;;;;;;;18.83;84.55;100575.13;4993740;28;20105;-80
2022/06/24 02:53:34;;;;;;;2.00;1.90;;;;;;;18.84;83.54;100571.44;4996241;28;20057;-80
2022/06/24 02:56:05;;;;;;;2.45;1.60;;;;;;;18.76;83.69;100561.50;4995860;28;20073;-79
2022/06/24 02:58:31;;;;;;;3.67;1.80;;;;;;;18.74;83.26;100547.41;4996619;28;20557;-80
2022/06/24 03:00:57;;;;;;;1.85;1.60;;;;;;;18.79;82.63;100542.31;4984735;28;20030;-80
2022/06/24 03:03:23;;;;;;;3.50;1.70;;;;;;;18.70;82.51;100537.19;4987879;28;20046;-80
2022/06/24 03:05:49;;;;;;;4.38;1.85;;;;;;;18.68;82.86;100543.59;4995648;28;20634;-80
2022/06/24 03:08:16;;;;;;;2.17;1.98;;;;;;;18.62;83.25;100533.53;4996109;28;20101;-80
2022/06/24 03:10:43;;;;;;;4.18;2.30;;;;;;;18.59;84.06;100546.50;4995790;28;20026;-80
2022/06/24 03:13:09;;;;;;;4.18;2.17;;;;;;;18.68;84.04;100545.41;4995837;28;20101;-80
2022/06/24 03:15:35;;;;;;;3.95;2.65;;;;;;;18.60;84.37;100532.88;4995324;28;20045;-80
2022/06/24 03:18:00;;;;;;;4.43;2.47;;;;;;;18.66;84.35;100531.31;5006800;28;20034;-80
2022/06/24 03:20:28;;;;;;;2.47;2.17;;;;;;;18.62;84.45;100533.53;4996512;28;20031;-80
2022/06/24 03:22:53;;;;;;;3.15;2.90;;;;;;;18.57;86.71;100533.22;4993051;28;20030;-81
2022/06/24 03:25:19;;;;;;;2.40;2.20;;;;;;;18.58;83.73;100534.88;4996300;28;20026;-80
2022/06/24 03:27:44;;;;;;;3.03;2.50;;;;;;;18.59;85.82;100527.69;4994687;28;20027;-80
2022/06/24 03:30:11;;;;;;;3.08;2.47;;;;;;;18.59;85.02;100530.38;4995871;28;20015;-80
2022/06/24 03:32:37;;;;;;;3.05;2.85;;;;;;;18.56;85.74;100539.63;4991562;28;20109;-80
2022/06/24 03:35:04;;;;;;;7.65;2.70;;;;;;;18.55;85.56;100529.88;5005810;28;20054;-80
2022/06/24 03:37:30;;;;;;;3.90;3.10;;;;;;;18.54;86.67;100528.19;4991722;28;20037;-80
2022/06/24 03:39:56;;;;;;;3.78;2.97;;;;;;;18.51;87.41;100519.66;4989288;28;20038;-81
2022/06/24 03:42:21;;;;;;;3.85;2.92;;;;;;;18.47;86.46;100520.00;4984226;28;20422;-80
2022/06/24 03:44:47;;;;;;;4.07;3.00;;;;;;;18.48;85.79;100512.75;4995269;28;20088;-80
2022/06/24 03:47:12;;;;;;;4.05;3.28;;;;;;;18.45;87.78;100515.81;4995007;28;20021;-80
2022/06/24 03:49:37;;;;;;;7.53;4.15;;;;;;;18.44;88.11;100524.91;4995224;28;20030;-80
2022/06/24 03:52:03;;;;;;;3.47;3.13;;;;;;;18.46;87.10;100522.88;4995497;28;20026;-80
2022/06/24 03:54:29;;;;;;;4.63;3.13;;;;;;;18.46;87.16;100536.31;4994050;28;20034;-80
2022/06/24 03:56:57;;;;;;;4.95;3.17;;;;;;;18.45;87.58;100546.25;4990568;28;20418;-80
2022/06/24 03:59:23;;;;;;;6.28;3.88;;;;;;;18.47;87.53;100549.59;4982439;28;20030;-80
2022/06/24 04:01:48;;;;;;;4.75;3.65;;;;;;;18.48;87.07;100550.41;4989296;28;20057;-80
2022/06/24 04:04:14;;;;;;;5.65;3.60;;;;;;;18.51;87.21;100563.50;4989192;28;20085;-80
2022/06/24 04:06:39;;;;;;;4.93;3.65;;;;;;;18.43;87.20;100561.69;4995926;28;20023;-80
2022/06/24 04:09:04;;;;;;;6.25;4.43;;;;;;;18.48;88.53;100567.41;4995723;28;20386;-80
2022/06/24 04:11:30;;;;;;;6.40;4.03;;;;;;;18.44;88.76;100568.75;4992374;28;20527;-80
2022/06/24 04:13:55;;;;;;;5.28;3.90;;;;;;;18.41;88.18;100574.47;4991426;28;20030;-80
2022/06/24 04:16:21;;;;;;;4.47;4.03;;;;;;;18.46;89.21;100579.34;4992583;28;20123;-80
2022/06/24 04:18:47;;;;;;;5.72;4.18;;;;;;;18.45;89.27;100577.66;4976507;28;20059;-80
2022/06/24 04:21:15;;;;;;;5.82;4.05;;;;;;;18.45;88.47;100572.28;4982383;28;20459;-80
2022/06/24 04:23:40;;;;;;;5.22;4.20;;;;;;;18.47;88.07;100575.66;4986175;28;20037;-80
2022/06/24 04:26:06;;;;;;;4.88;4.28;;;;;;;18.46;89.01;100588.25;4990474;28;20023;-79
2022/06/24 04:28:32;;;;;;;6.35;4.68;;;;;;;18.47;88.61;100583.72;4995201;28;20113;-80
2022/06/24 04:30:57;;;;;;;5.10;4.32;;;;;;;18.49;88.84;100577.13;4984791;28;20119;-80
2022/06/24 04:33:22;;;;;;;6.80;4.50;;;;;;;18.48;87.99;100572.78;4996012;28;20120;-80
2022/06/24 04:35:48;;;;;;;8.85;4.57;;;;;;;18.51;88.14;100576.97;4995254;28;20022;-79
2022/06/24 04:38:14;;;;;;;6.38;4.93;;;;;;;18.51;88.48;100578.81;4984272;28;20029;-79
2022/06/24 04:40:39;;;;;;;5.68;5.07;;;;;;;18.52;88.48;100575.09;4998789;28;20022;-80
2022/06/24 04:43:05;;;;;;;6.03;5.28;;;;;;;18.56;89.23;100581.81;4997752;28;20036;-80
2022/06/24 04:45:30;;;;;;;6.68;5.63;;;;;;;18.49;88.61;100563.69;4990726;28;20506;-79
2022/06/24 04:47:56;;;;;;;6.30;5.63;;;;;;;18.55;88.98;100569.38;4987127;28;20022;-80
2022/06/24 04:50:22;;;;;;;8.18;5.53;;;;;;;18.52;89.77;100565.19;4991662;28;20076;-80
2022/06/24 04:52:47;;;;;;;7.07;5.93;;;;;;;18.59;89.94;100573.41;4990438;28;20110;-80
2022/06/24 04:55:12;;;;;;;6.53;5.60;;;;;;;18.57;89.40;100564.66;4978464;28;20027;-79
2022/06/24 04:57:38;;;;;;;8.13;5.95;;;;;;;18.63;89.37;100561.25;4994305;28;20069;-80
2022/06/24 05:00:05;;;;;;;6.43;5.80;;;;;;;18.59;89.28;100571.53;4982064;28;20031;-80
2022/06/24 05:02:30;;;;;;;7.88;6.65;;;;;;;18.55;89.78;100572.91;4991584;28;20030;-80
2022/06/24 05:04:55;;;;;;;9.77;6.55;;;;;;;18.59;89.17;100571.53;4993192;28;20054;-80
2022/06/24 05:07:21;;;;;;;11.47;6.97;;;;;;;18.61;90.22;100580.25;4992355;28;20030;-80
2022/06/24 05:09:46;;;;;;;7.27;6.53;;;;;;;18.62;90.30;100587.34;4999414;28;20416;-80
2022/06/24 05:12:13;;;;;;;9.35;7.15;;;;;;;18.59;89.59;100573.41;4986384;28;20862;-80
2022/06/24 05:14:38;;;;;;;8.35;7.55;;;;;;;18.60;88.96;100575.06;4987322;28;20105;-81
2022/06/24 05:17:04;;;;;;;7.82;7.07;;;;;;;18.61;88.43;100574.88;4975076;28;20031;-80
2022/06/24 05:19:29;;;;;;;9.32;7.93;;;;;;;18.59;90.02;100573.41;4978938;28;20026;-80
2022/06/24 05:21:55;;;;;;;8.52;7.72;;;;;;;18.60;90.04;100573.22;4994356;28;20399;-80
2022/06/24 05:24:22;;;;;;;9.07;8.13;;;;;;;18.61;89.95;100574.88;4981859;28;20083;-80
2022/06/24 05:26:47;;;;;;;8.50;7.60;;;;;;;18.62;90.30;100575.75;4995017;28;20089;-80
2022/06/24 05:29:12;;;;;;;8.95;8.05;;;;;;;18.64;89.58;100585.28;4991571;28;20408;-80
2022/06/24 05:31:38;;;;;;;10.05;8.30;;;;;;;18.60;89.77;100583.13;4980188;28;20387;-80
2022/06/24 05:34:04;;;;;;;10.95;8.35;;;;;;;18.60;90.09;100581.28;4982882;28;20105;-80
2022/06/24 05:36:29;;;;;;;9.70;8.63;;;;;;;18.59;90.62;100586.84;4994454;28;20038;-80
2022/06/24 05:38:55;;;;;;;9.20;8.30;;;;;;;18.61;90.10;100588.34;4993441;28;20085;-80
2022/06/24 05:41:20;;;;;;;9.80;8.77;;;;;;;18.52;90.67;100584.03;4992842;28;20192;-80
2022/06/24 05:43:46;;;;;;;9.10;8.23;;;;;;;18.52;91.33;100588.53;4985253;28;20475;-80
2022/06/24 05:46:12;;;;;;;9.57;8.32;;;;;;;18.53;91.57;100590.22;4990828;28;20018;-80
2022/06/24 05:48:38;;;;;;;10.35;9.35;;;;;;;18.53;91.60;100587.53;4983766;28;20558;-80
2022/06/24 05:51:12;;;;;;;10.25;9.13;;;;;;;18.55;90.80;100586.38;4987438;28;20030;-80
2022/06/24 05:56:22;;;;;;;11.48;10.30;;;;;;;18.61;92.29;100580.25;4983197;28;20049;-80
2022/06/24 05:58:47;;;;;;;15.02;11.00;;;;;;;18.65;92.53;100580.75;4980400;28;20031;-81
2022/06/24 06:01:12;;;;;;;16.20;13.25;;;;;;;18.64;93.92;100577.22;5000109;28;20076;-83
2022/06/24 06:03:38;;;;;;;13.93;12.30;;;;;;;18.68;92.68;100581.25;4997589;28;20049;-80
2022/06/24 06:06:03;;;;;;;22.40;12.63;;;;;;;18.72;93.68;100580.88;4994876;28;20034;-80
2022/06/24 06:08:29;;;;;;;17.38;13.50;;;;;;;18.72;92.80;100579.03;5004735;28;20053;-79
2022/06/24 06:10:54;;;;;;;16.98;14.55;;;;;;;18.78;93.55;100578.31;4996877;28;20478;-80
2022/06/24 06:13:20;;;;;;;17.70;14.52;;;;;;;18.80;92.93;100591.59;4991035;28;20022;-80
2022/06/24 06:15:45;;;;;;;17.85;15.75;;;;;;;18.81;92.99;100591.41;4992628;28;20046;-80
2022/06/24 06:18:11;;;;;;;23.48;17.67;;;;;;;18.85;92.78;100591.91;4987750;28;20038;-80
2022/06/24 06:20:37;;;;;;;23.55;17.70;;;;;;;18.86;93.45;100594.44;4989642;28;20046;-79
2022/06/24 06:23:02;;;;;;;23.40;17.90;;;;;;;18.86;92.93;100593.59;4991944;28;20380;-80
2022/06/24 06:25:28;;;;;;;23.95;18.95;;;;;;;18.86;93.97;100591.75;4988952;28;20046;-80
2022/06/24 06:27:54;;;;;;;22.20;17.20;;;;;;;18.89;94.07;100592.44;4989514;28;20545;-80
2022/06/24 06:30:19;;;;;;;22.63;17.77;;;;;;;18.92;92.82;100594.72;4997085;28;20058;-80
2022/06/24 06:32:44;;;;;;;22.80;18.52;;;;;;;18.89;93.77;100589.72;4997816;28;20034;-80
2022/06/24 06:35:12;;;;;;;23.27;18.05;;;;;;;18.91;93.73;100585.00;4998505;28;20039;-80
2022/06/24 06:37:37;;;;;;;20.75;17.33;;;;;;;18.92;93.48;100587.53;4989708;28;20037;-80
2022/06/24 06:40:03;;;;;;;19.20;16.20;;;;;;;18.94;92.98;100595.41;4989661;28;20507;-80
2022/06/24 06:42:29;;;;;;;18.95;16.17;;;;;;;18.97;93.20;100590.50;4994754;28;20026;-80
2022/06/24 06:44:57;;;;;;;19.90;17.27;;;;;;;18.98;94.51;100580.56;4993210;28;20083;-80
2022/06/24 06:47:22;;;;;;;19.88;17.48;;;;;;;18.97;94.65;100578.91;4993592;28;20037;-79
2022/06/24 06:49:48;;;;;;;19.48;16.90;;;;;;;18.96;94.44;100578.06;4997884;28;20026;-80
2022/06/24 06:52:13;;;;;;;21.20;18.98;;;;;;;18.96;95.55;100577.22;4991136;28;20053;-81
2022/06/24 06:54:38;;;;;;;20.73;18.53;;;;;;;18.99;94.93;100580.41;4991617;28;20390;-80
2022/06/24 06:57:05;;;;;;;19.17;17.27;;;;;;;19.01;94.82;100574.84;4994585;28;20309;-81
2022/06/24 06:59:30;;;;;;;19.65;16.73;;;;;;;19.01;95.37;100578.34;4997619;28;20105;-81
2022/06/24 07:01:56;;;;;;;18.20;16.38;;;;;;;19.03;94.70;100575.47;4999173;28;20072;-82
2022/06/24 07:04:21;;;;;;;18.13;16.02;;;;;;;19.06;94.19;100567.06;4995722;28;20046;-81
2022/06/24 07:06:47;;;;;;;19.13;17.13;;;;;;;19.06;95.14;100577.00;4987686;28;20038;-81
2022/06/24 07:09:12;;;;;;;18.88;16.88;;;;;;;19.05;94.21;100581.50;4989260;28;20026;-80
2022/06/24 07:11:38;;;;;;;17.90;16.17;;;;;;;19.08;94.90;100581.16;4990390;28;20580;-81
2022/06/24 07:14:03;;;;;;;18.70;16.90;;;;;;;19.10;94.06;100572.91;4991334;28;20023;-81
2022/06/24 07:16:28;;;;;;;19.00;17.05;;;;;;;19.12;93.80;100570.88;4992406;28;20454;-80
2022/06/24 07:18:56;;;;;;;19.15;17.15;;;;;;;19.11;93.48;100574.59;4990434;28;20106;-81
2022/06/24 07:21:21;;;;;;;18.25;16.42;;;;;;;19.15;92.94;100568.69;4986753;28;20077;-80
2022/06/24 07:23:48;;;;;;;20.00;17.93;;;;;;;19.17;93.91;100557.72;4993035;28;20070;-81
2022/06/24 07:26:13;;;;;;;18.58;16.77;;;;;;;19.21;92.95;100561.72;4995763;28;20632;-81
2022/06/24 07:28:39;;;;;;;20.45;18.33;;;;;;;19.23;93.73;100557.84;4995660;28;20088;-81
2022/06/24 07:31:14;;;;;;;20.60;18.60;;;;;;;19.27;93.89;100569.09;4984825;28;20038;-81
2022/06/24 07:33:39;;;;;;;21.67;19.45;;;;;;;19.25;94.64;100572.97;4991438;28;20034;-81
2022/06/24 07:36:04;;;;;;;24.33;20.63;;;;;;;19.27;94.37;100569.09;4987618;28;20031;-81
2022/06/24 07:38:30;;;;;;;22.15;19.90;;;;;;;19.31;94.64;100580.31;4989209;28;20162;-80
2022/06/24 07:40:55;;;;;;;27.17;24.37;;;;;;;19.31;94.94;100581.16;4991274;28;20050;-80
2022/06/24 07:43:21;;;;;;;26.75;23.90;;;;;;;19.34;95.13;100586.19;4988775;28;20304;-80
2022/06/24 07:45:46;;;;;;;30.75;27.58;;;;;;;19.34;95.80;100590.75;4994018;28;20030;-77
2022/06/24 07:48:11;;;;;;;32.88;29.65;;;;;;;19.33;95.31;100606.03;4990451;28;20034;-77
2022/06/24 07:50:37;;;;;;;35.80;32.35;;;;;;;19.32;95.65;100608.94;4994651;28;20056;-79
2022/06/24 07:53:02;;;;;;;37.90;34.13;;;;;;;19.26;94.41;100606.97;4996615;28;20096;-82
2022/06/24 07:58:11;;;;;;;40.63;36.35;;;;;;;19.20;95.03;100609.34;4981620;28;20042;-81
2022/06/24 08:00:36;;;;;;;37.13;33.40;;;;;;;19.23;94.06;100610.84;4985586;28;20026;-81
2022/06/24 08:03:02;;;;;;;36.20;32.60;;;;;;;19.19;93.80;100598.75;4995702;28;20058;-82
2022/06/24 08:05:27;;;;;;;36.22;32.72;;;;;;;19.22;96.27;100603.78;4993780;28;20277;-81
2022/06/24 08:07:52;;;;;;;33.83;30.70;;;;;;;19.25;96.76;100608.78;4989411;28;20491;-82
2022/06/24 08:10:18;;;;;;;33.80;30.40;;;;;;;19.33;96.33;100611.41;4984320;28;20035;-81
2022/06/24 08:12:43;;;;;;;31.55;28.58;;;;;;;19.41;95.67;100610.53;4989513;28;20289;-81
2022/06/24 08:15:09;;;;;;;32.13;28.83;;;;;;;19.52;96.12;100610.09;4982643;28;20038;-82
2022/06/24 08:17:34;;;;;;;32.80;29.67;;;;;;;19.69;97.12;100612.66;4991444;28;20019;-83
2022/06/24 08:19:59;;;;;;;27.08;24.58;;;;;;;19.79;97.23;100613.25;4988193;28;20101;-83
2022/06/24 08:22:25;;;;;;;21.38;19.30;;;;;;;19.80;94.14;100609.53;4991365;28;20034;-83
2022/06/24 08:24:50;;;;;;;18.50;16.75;;;;;;;19.96;94.64;100600.44;4994353;28;20392;-82
2022/06/24 08:27:16;;;;;;;19.17;17.17;;;;;;;20.17;94.66;100602.41;4994432;28;20047;-81
2022/06/24 08:29:41;;;;;;;19.23;16.20;;;;;;;20.39;92.78;100592.50;4990710;28;20050;-81
2022/06/24 08:32:07;;;;;;;19.40;17.60;;;;;;;20.66;93.85;100592.88;4989727;28;20027;-81
2022/06/24 08:34:32;;;;;;;18.10;16.23;;;;;;;20.82;91.59;100589.09;4992119;28;20379;-81
2022/06/24 08:36:57;;;;;;;19.23;17.48;;;;;;;21.07;91.30;100595.78;4988116;28;20046;-82
2022/06/24 08:39:23;;;;;;;18.08;16.38;;;;;;;21.19;89.55;100588.00;4993202;28;20037;-82
2022/06/24 08:41:53;;;;;;;16.13;14.57;;;;;;;21.30;87.50;100592.06;4994776;28;20455;-81
2022/06/24 08:44:18;;;;;;;16.38;14.80;;;;;;;21.33;87.33;100590.81;4995046;28;20363;-81
2022/06/24 08:46:44;;;;;;;15.52;13.93;;;;;;;21.46;86.30;100593.63;4988209;28;20080;-82
2022/06/24 08:49:09;;;;;;;20.05;18.08;;;;;;;21.52;85.98;100605.59;4993081;28;20022;-82
2022/06/24 08:51:35;;;;;;;24.58;22.23;;;;;;;21.51;83.52;100602.03;4990665;28;20026;-82
2022/06/24 08:54:02;;;;;;;24.30;22.00;;;;;;;21.61;82.69;100596.28;4995412;28;20172;-82
2022/06/24 08:56:29;;;;;;;24.30;21.85;;;;;;;21.68;83.00;100590.94;4994494;28;20027;-82
2022/06/24 08:58:55;;;;;;;23.75;21.65;;;;;;;21.70;82.51;100596.97;4994217;28;20113;-81
2022/06/24 09:01:21;;;;;;;21.58;19.58;;;;;;;21.81;83.50;100596.44;4983072;28;20237;-83
2022/06/24 09:03:48;;;;;;;20.35;18.25;;;;;;;21.87;83.28;100584.00;4980933;28;20055;-82
2022/06/24 09:06:14;;;;;;;18.10;16.35;;;;;;;21.85;80.97;100594.16;4989828;28;20034;-84
2022/06/24 09:08:43;;;;;;;22.55;20.45;;;;;;;21.84;82.60;100593.31;4988602;28;20038;-83
2022/06/24 09:11:10;;;;;;;26.02;23.65;;;;;;;21.97;82.65;100589.88;4991073;28;20022;-82
2022/06/24 09:13:53;;;;;;;25.35;23.05;;;;;;;22.20;81.76;100589.59;4985735;28;20023;-82
2022/06/24 09:16:19;;;;;;;24.52;22.38;;;;;;;22.31;80.43;100591.75;4993029;28;20037;-82
2022/06/24 09:19:00;;;;;;;25.75;23.33;;;;;;;22.73;80.57;100584.41;4992017;28;20404;-82
2022/06/24 09:21:32;;;;;;;24.63;22.42;;;;;;;22.76;78.36;100587.75;4990281;28;20022;-81
2022/06/24 09:23:59;;;;;;;24.85;22.55;;;;;;;22.75;78.66;100595.03;4993232;28;20105;-82
2022/06/24 09:26:40;;;;;;;17.35;15.75;;;;;;;23.28;76.78;100584.31;5009134;28;20058;-82
2022/06/24 09:29:10;;;;;;;15.40;13.52;;;;;;;23.56;75.06;100585.97;5008777;28;20461;-81
2022/06/24 09:31:38;;;;;;;14.65;13.25;;;;;;;23.85;72.22;100588.47;5008578;28;20056;-82
2022/06/24 09:34:15;;;;;;;14.93;13.50;;;;;;;24.22;73.28;100583.38;4999502;28;20661;-83
2022/06/24 09:36:42;;;;;;;15.27;13.13;;;;;;;24.46;71.99;100582.63;4999724;28;20034;-82
2022/06/24 09:39:11;;;;;;;13.43;11.93;;;;;;;24.91;70.50;100579.94;4992757;28;20030;-83
2022/06/24 09:41:48;;;;;;;11.13;9.68;;;;;;;25.34;69.10;100581.09;5006152;28;20041;-83
2022/06/24 09:44:15;;;;;;;10.40;9.30;;;;;;;25.80;68.69;100570.88;5005982;28;20019;-83
2022/06/24 09:46:41;;;;;;;10.98;9.18;;;;;;;26.20;67.63;100571.28;5003798;28;20041;-83
2022/06/24 09:49:09;;;;;;;9.93;8.60;;;;;;;26.46;66.85;100574.72;4995277;28;20023;-83
2022/06/24 09:51:35;;;;;;;9.27;8.00;;;;;;;26.64;62.54;100576.59;4984410;28;20033;-83
2022/06/24 09:54:00;;;;;;;10.65;7.22;;;;;;;26.56;60.15;100571.44;4996384;28;20066;-83
2022/06/24 09:56:27;;;;;;;9.18;7.20;;;;;;;26.33;61.94;100583.03;4996860;28;20114;-83
2022/06/24 10:01:40;;;;;;;9.18;6.90;;;;;;;26.04;59.91;100583.59;4995538;28;20077;-83
2022/06/24 10:04:13;;;;;;;7.78;7.18;;;;;;;26.16;62.55;100580.97;4994887;28;20054;-84
2022/06/24 10:06:42;;;;;;;7.47;6.47;;;;;;;26.09;60.56;100590.25;4991881;28;20109;-84
2022/06/24 10:09:08;;;;;;;8.10;7.10;;;;;;;26.07;60.85;100585.03;5016711;28;20038;-83
2022/06/24 10:11:34;;;;;;;8.23;7.10;;;;;;;25.96;60.81;100583.91;4981926;28;20019;-83
2022/06/24 10:14:01;;;;;;;9.77;8.20;;;;;;;25.88;59.57;100589.63;5001068;28;20025;-83
2022/06/24 10:16:26;;;;;;;9.70;8.80;;;;;;;25.97;61.89;100580.13;4997642;28;20030;-83
2022/06/24 10:18:53;;;;;;;11.17;8.93;;;;;;;26.01;62.16;100597.66;4997521;28;20026;-83
2022/06/24 10:21:19;;;;;;;10.05;7.28;;;;;;;25.58;59.43;100608.50;4992176;28;20305;-83
2022/06/24 10:23:47;;;;;;;3.20;3.00;;;;;;;24.85;57.71;100637.03;4984687;28;20122;-83
2022/06/24 10:26:26;;;;;;;10.10;3.20;;;;;;;24.15;62.54;100643.94;4995952;28;20034;-83
2022/06/24 10:29:03;;;;;;;9.00;3.85;;;;;;;23.43;64.59;100645.59;4996082;28;20047;-84
2022/06/24 10:31:56;;;;;;;3.90;2.35;;;;;;;23.01;64.99;100632.16;4992025;28;20054;-83
2022/06/24 10:34:33;;;;;;;6.20;2.63;;;;;;;22.35;67.80;100628.19;4981896;28;20041;-84
2022/06/24 10:37:12;;;;;;;3.05;2.08;;;;;;;22.27;67.18;100631.03;4988919;28;20048;-84
2022/06/24 10:39:45;;;;;;;;;;;;;;;22.61;66.59;100625.81;4989779;28;20105;-84
2022/06/24 10:42:13;;;;;;;6.50;2.45;;;;;;;22.10;70.47;100635.09;4977439;28;20251;-84
2022/06/24 10:44:51;;;;;;;3.65;2.63;;;;;;;22.09;69.20;100633.44;4989879;28;20030;-84
2022/06/24 10:47:18;;;;;;;2.85;2.50;;;;;;;21.90;71.43;100629.53;4994009;28;20082;-85
2022/06/24 10:50:12;;;;;;;4.00;2.58;;;;;;;22.05;70.19;100633.00;4993130;28;20037;-86
2022/06/24 10:52:55;;;;;;;3.88;2.70;;;;;;;21.77;72.50;100638.41;4983389;28;20101;-85
2022/06/24 10:55:21;;;;;;;4.60;2.83;;;;;;;21.72;71.96;100638.16;4989522;28;20030;-84
2022/06/24 10:57:56;;;;;;;3.00;2.13;;;;;;;21.65;71.77;100632.72;4995749;28;20039;-85
2022/06/24 11:00:23;;;;;;;2.78;2.20;;;;;;;21.52;73.42;100627.19;4993362;28;20093;-84
2022/06/24 11:03:04;;;;;;;4.20;1.90;;;;;;;21.56;72.72;100626.59;5004658;28;20454;-84
2022/06/24 11:05:32;;;;;;;2.83;1.70;;;;;;;21.43;70.55;100621.03;4983299;28;20551;-84
2022/06/24 11:07:58;;;;;;;2.85;1.92;;;;;;;21.40;72.13;100616.88;4977323;28;20039;-84
2022/06/24 11:10:27;;;;;;;2.10;2.00;;;;;;;21.37;73.06;100621.84;4982349;28;20034;-84
2022/06/24 11:13:00;;;;;;;2.47;2.28;;;;;;;21.39;73.31;100611.66;4997720;28;20078;-84
2022/06/24 11:15:46;;;;;;;2.70;2.50;;;;;;;21.28;73.22;100614.88;4983127;28;20041;-83
2022/06/24 11:18:17;;;;;;;3.63;2.60;;;;;;;21.26;75.48;100609.69;4984412;28;20056;-83
2022/06/24 11:21:00;;;;;;;2.60;2.40;;;;;;;21.32;77.44;100608.09;4984249;28;20051;-83
2022/06/24 11:23:28;;;;;;;3.22;2.80;;;;;;;21.53;77.62;100594.59;4982226;28;20034;-83
2022/06/24 11:25:59;;;;;;;3.95;2.65;;;;;;;21.71;78.17;100590.53;4979275;28;20480;-82
2022/06/24 11:28:36;;;;;;;4.55;3.08;;;;;;;21.77;77.39;100589.75;4968338;28;20110;-82
2022/06/24 11:31:25;;;;;;;3.80;2.80;;;;;;;21.83;74.56;100582.72;4964120;28;20051;-83